Flight Track Log - Related Links

Times and Time Zones

All times are in EDT time to prevent confusion due to time zone crossing. See the ASQ5810 flight status page for this flight to view local times or setup timezone preferences in your user account.

Time Position Orientation Groundspeed Altitude Reporting Facility
EDT Latitude Longitude Course Direction KTS MPH feet Rate Location/Type
Sat 06:08:17 AM 40.6372 -75.5650 264° West 215 247 4,700  Level New Center
Sat 06:09:16 AM 40.6614 -75.6353 294° West 259 298 7,100 2,319 Climbing New Center
Sat 06:10:16 AM 40.6489 -75.7328 260° West 251 289 9,300 1,934 Climbing New Center
Sat 06:11:17 AM 40.6383 -75.8361 262° West 275 316 11,000 1,537 Climbing New Center
Sat 06:12:17 AM 40.6269 -75.9528 263° West 311 358 12,400 1,587 Climbing New Center
Sat 06:13:00 AM 40.5868 -76.1381 264° West  Level FlightAware
Sat 06:13:18 AM 40.6133 -76.0775 262° West 344 396 14,200  Level New Center
Sat 06:14:18 AM 40.5992 -76.2022 262° West 349 402 15,900 1,700 Climbing New Center
Sat 06:15:18 AM 40.5856 -76.3186 261° West 349 402 17,600 1,576 Climbing New Center
Sat 06:16:16 AM 40.5706 -76.4567 262° West 349 402 19,000 1,500 Climbing New Center
Sat 06:17:18 AM 40.5567 -76.5731 261° West 349 402 20,600 1,623 Climbing New Center
Sat 06:18:18 AM 40.5608 -76.6964 273° West 349 402 22,300 1,686 Climbing New Center
Sat 06:19:19 AM 40.5733 -76.8231 277° West 349 402 24,000 1,780 Climbing New Center
Sat 06:20:16 AM 40.5839 -76.9417 277° West 349 402 25,800 1,525 Climbing New Center
Sat 06:21:17 AM 40.5939 -77.0656 276° West 349 402 27,000 1,140 Climbing New Center
Sat 06:22:17 AM 40.6039 -77.1894 276° West 344 396 28,100 1,140 Climbing New Center
Sat 06:23:18 AM 40.6158 -77.3136 277° West 344 396 29,300 1,186 Climbing New Center
Sat 06:25:09 AM 40.6361 -77.5650 276° West 346 398 31,500 1,193 Climbing Cleveland Center
Sat 06:26:09 AM 40.6475 -77.6906 277° West 346 398 32,700 1,200 Climbing Cleveland Center
Sat 06:27:09 AM 40.6569 -77.8186 276° West 351 404 33,900 1,150 Climbing Cleveland Center
Sat 06:28:09 AM 40.6767 -77.9467 282° West 351 404 35,000 1,050 Climbing Cleveland Center
Sat 06:29:09 AM 40.6942 -78.0772 280° West 351 404 36,000 500 Climbing Cleveland Center
Sat 06:30:09 AM 40.7114 -78.2028 280° West 351 404 36,000  Level Cleveland Center
Sat 06:31:09 AM 40.7289 -78.3336 280° West 356 410 36,000  Level Cleveland Center
Sat 06:32:09 AM 40.7458 -78.4619 280° West 356 410 36,000  Level Cleveland Center
Sat 06:33:09 AM 40.7625 -78.5847 280° West 356 410 36,000  Level Cleveland Center
Sat 06:34:09 AM 40.7792 -78.7047 280° West 350 403 36,000  Level Cleveland Center
Sat 06:35:09 AM 40.7958 -78.8278 280° West 345 397 36,000  Level Cleveland Center
Sat 06:36:09 AM 40.8078 -78.9236 279° West 345 397 36,000  Level Cleveland Center
Sat 06:37:09 AM 40.8283 -79.0683 281° West 345 397 36,000  Level Cleveland Center
Sat 06:38:09 AM 40.8447 -79.1914 280° West 345 397 36,000  Level Cleveland Center
Sat 06:39:09 AM 40.8606 -79.3175 279° West 345 397 36,000  Level Cleveland Center
Sat 06:40:09 AM 40.8744 -79.4353 279° West 358 412 36,000  Level Cleveland Center
Sat 06:41:09 AM 40.8922 -79.5614 281° West 358 412 36,000  Level Cleveland Center
Sat 06:42:09 AM 40.9081 -79.6875 279° West 358 412 36,000  Level Cleveland Center
Sat 06:43:09 AM 40.9233 -79.8136 279° West 352 405 36,000  Level Cleveland Center
Sat 06:44:09 AM 40.9389 -79.9428 279° West 352 405 36,000  Level Cleveland Center
Sat 06:45:09 AM 40.9542 -80.0664 279° West 352 405 36,000  Level Cleveland Center
Sat 06:46:09 AM 40.9692 -80.1928 279° West 352 405 36,000  Level Cleveland Center
Sat 06:47:09 AM 40.9842 -80.3192 279° West 352 405 36,000  Level Cleveland Center
Sat 06:48:09 AM 40.9989 -80.4456 279° West 352 405 36,000  Level Cleveland Center
Sat 06:49:09 AM 41.0136 -80.5719 279° West 352 405 36,000  Level Cleveland Center
Sat 06:50:09 AM 41.0281 -80.6986 279° West 352 405 36,000  Level Cleveland Center
Sat 06:51:09 AM 41.0447 -80.8253 280° West 352 405 36,000  Level Cleveland Center
Sat 06:52:09 AM 41.0547 -80.9547 276° West 352 405 36,000  Level Cleveland Center
Sat 06:53:09 AM 41.0583 -81.0869 272° West 352 405 36,000  Level Cleveland Center
Sat 06:54:09 AM 41.0681 -81.2139 276° West 352 405 36,000  Level Cleveland Center
Sat 06:55:09 AM 41.0778 -81.3461 276° West 352 405 36,000  Level Cleveland Center
Sat 06:56:09 AM 41.0831 -81.4756 273° West 352 405 36,000  Level Cleveland Center
Sat 06:57:09 AM 41.0903 -81.6189 274° West 358 412 36,000  Level Cleveland Center
Sat 06:58:09 AM 41.0992 -81.7569 275° West 370 426 36,000  Level Cleveland Center
Sat 06:59:09 AM 41.1083 -81.8894 275° West 365 420 36,000  Level Cleveland Center
Sat 07:00:09 AM 41.1150 -82.0244 274° West 370 426 36,000  Level Cleveland Center
Sat 07:01:09 AM 41.1236 -82.1569 275° West 368 423 36,000  Level Cleveland Center
Sat 07:02:09 AM 41.1322 -82.2894 275° West 363 418 36,000  Level Cleveland Center
Sat 07:03:09 AM 41.1386 -82.4111 274° West 369 425 36,000  Level Cleveland Center
Sat 07:04:09 AM 41.1447 -82.5436 274° West 369 425 36,000  Level Cleveland Center
Sat 07:05:09 AM 41.1506 -82.6817 273° West 369 425 36,000  Level Cleveland Center
Sat 07:06:09 AM 41.1583 -82.8172 274° West 369 425 36,000  Level Cleveland Center
Sat 07:07:09 AM 41.1661 -82.9525 274° West 369 425 36,000  Level Cleveland Center
Sat 07:08:09 AM 41.1717 -83.0850 273° West 369 425 36,000  Level Cleveland Center
Sat 07:09:09 AM 41.1767 -83.2344 273° West 369 425 36,000  Level Cleveland Center
Sat 07:10:09 AM 41.1839 -83.3669 274° West 369 425 36,000  Level Cleveland Center
Sat 07:11:09 AM 41.1908 -83.5053 274° West 369 425 36,000 -150 Level Cleveland Center
Sat 07:12:09 AM 41.1956 -83.6408 273° West 369 425 35,700 -400 Descending Cleveland Center
Sat 07:13:09 AM 41.2025 -83.7764 274° West 363 418 35,200 -500 Descending Cleveland Center
Sat 07:14:09 AM 41.2114 -83.9039 275° West 363 418 34,700 -550 Descending Cleveland Center
Sat 07:15:09 AM 41.2156 -84.0422 272° West 368 423 34,100 -350 Descending Cleveland Center
Sat 07:16:09 AM 41.2217 -84.1778 273° West 368 423 34,000 -67 Descending Cleveland Center
Sat 07:16:38 AM 41.2225 -84.2275 271° West 376 433 34,000  Level Chicago Center
Sat 07:17:39 AM 41.2269 -84.3661 272° West 378 435 34,000  Level Chicago Center
Sat 07:18:40 AM 41.2308 -84.5058 272° West 379 436 34,000  Level Chicago Center
Sat 07:19:40 AM 41.2344 -84.6478 272° West 383 441 34,000  Level Chicago Center
Sat 07:20:41 AM 41.2397 -84.7894 273° West 385 443 34,000 -98 Level Chicago Center
Sat 07:21:42 AM 41.2458 -84.9308 273° West 383 441 33,800 -595 Descending Chicago Center
Sat 07:22:42 AM 41.2508 -85.0742 273° West 386 444 32,800 -1,388 Descending Chicago Center
Sat 07:23:43 AM 41.2556 -85.2150 273° West 382 440 31,000 -1,869 Descending Chicago Center
Sat 07:24:44 AM 41.2606 -85.3611 273° West 388 447 29,000 -1,967 Descending Chicago Center
Sat 07:25:45 AM 41.2678 -85.5456 273° West 410 472 27,000 -1,820 Descending Chicago Center
Sat 07:26:46 AM 41.2722 -85.7083 272° West 433 498 25,300 -992 Descending Chicago Center
Sat 07:27:46 AM 41.2906 -85.8672 279° West 434 499 25,000 -149 Descending Chicago Center
Sat 07:28:47 AM 41.3233 -86.0200 286° West 430 495 25,000  Level Chicago Center
Sat 07:29:48 AM 41.3567 -86.1708 286° West 426 490 25,000  Level Chicago Center
Sat 07:30:49 AM 41.3892 -86.3222 286° West 427 491 25,000  Level Chicago Center
Sat 07:31:50 AM 41.4219 -86.4758 286° West 431 496 25,000  Level Chicago Center
Sat 07:32:51 AM 41.4539 -86.6303 285° West 432 497 25,000 -1,131 Level Chicago Center
Sat 07:33:52 AM 41.4861 -86.7803 286° West 423 487 22,700 -3,197 Descending Chicago Center
Sat 07:34:53 AM 41.5144 -86.9181 285° West 398 458 18,500 -3,719 Descending Chicago Center
Sat 07:35:53 AM 41.5422 -87.0561 285° West 390 449 15,200 -2,735 Descending Chicago Center
Sat 07:37:09 AM 41.5833 -87.2333 287° West 371 427 12,300 -1,412 Descending Chicago TRACON
Sat 07:38:09 AM 41.6500 -87.3500 307° West 361 415 12,000 -158 Descending Chicago TRACON
Sat 07:39:03 AM 41.7000 -87.4333 309° West 366 421 12,000  Level Chicago TRACON
Sat 07:40:03 AM 41.7667 -87.5500 307° West 368 423 12,000  Level Chicago TRACON
Sat 07:40:58 AM 41.8167 -87.6333 309° West 368 423 12,000 -275 Level Chicago TRACON
Sat 07:41:52 AM 41.8667 -87.7167 309° West 289 333 11,500 -1,263 Descending Chicago TRACON
Sat 07:42:52 AM 41.9000 -87.8167 294° West 280 322 9,600 -1,842 Descending Chicago TRACON
Sat 07:43:46 AM 41.9167 -87.9000 285° West 288 331 8,000 -1,368 Descending Chicago TRACON
Sat 07:44:46 AM 41.9500 -88.0000 294° West 271 312 7,000 -650 Descending Chicago TRACON
Sat 07:45:46 AM 42.0000 -88.0833 309° West 274 315 6,700 -789 Descending Chicago TRACON
Sat 07:46:40 AM 42.0500 -88.1333 323° Northwest 261 300 5,500 -1,231 Descending Chicago TRACON
Sat 07:47:04 AM 42.0581 -88.1486 305° West 265 305 5,100 -1,600 Descending Chicago Center
Sat 07:47:40 AM 42.1000 -88.1167 29° Northeast 283 326 3,900 -1,375 Descending Chicago TRACON
Sat 07:48:40 AM 42.0833 -88.0333 105° East 245 282 2,900 -900 Descending Chicago TRACON
Sat 07:49:40 AM 42.0333 -87.9833 143° Southeast 193 222 2,100 -850 Descending Chicago TRACON
Sat 07:50:40 AM 42.0000 -87.9500 143° Southeast 140 161 1,200 -900 Descending Chicago TRACON

Login

Don't have an account? Register now (free) for customized features, flight alerts, and more!